sensor_id;sensor_type;location;lat;lon;timestamp;P1;durP1;ratioP1;P2;durP2;ratioP2
65799;SDS011;52544;48.116;11.660;2022-09-09T00:00:38;6.35;;;1.60;;
65799;SDS011;52544;48.116;11.660;2022-09-09T00:03:18;2.13;;;1.52;;
65799;SDS011;52544;48.116;11.660;2022-09-09T00:05:51;6.75;;;1.90;;
65799;SDS011;52544;48.116;11.660;2022-09-09T00:11:41;2.45;;;1.50;;
65799;SDS011;52544;48.116;11.660;2022-09-09T00:14:17;3.53;;;1.60;;
65799;SDS011;52544;48.116;11.660;2022-09-09T00:17:04;3.13;;;1.75;;
65799;SDS011;52544;48.116;11.660;2022-09-09T00:19:53;2.58;;;1.67;;
65799;SDS011;52544;48.116;11.660;2022-09-09T00:22:39;3.17;;;1.80;;
65799;SDS011;52544;48.116;11.660;2022-09-09T00:25:12;3.45;;;1.88;;
65799;SDS011;52544;48.116;11.660;2022-09-09T00:27:46;2.97;;;1.88;;
65799;SDS011;52544;48.116;11.660;2022-09-09T00:32:43;2.67;;;1.50;;
65799;SDS011;52544;48.116;11.660;2022-09-09T00:37:34;2.75;;;1.90;;
65799;SDS011;52544;48.116;11.660;2022-09-09T00:40:00;3.53;;;2.25;;
65799;SDS011;52544;48.116;11.660;2022-09-09T00:53:17;2.35;;;1.60;;
65799;SDS011;52544;48.116;11.660;2022-09-09T00:58:34;3.35;;;1.70;;
65799;SDS011;52544;48.116;11.660;2022-09-09T01:01:18;2.67;;;1.80;;
65799;SDS011;52544;48.116;11.660;2022-09-09T01:03:53;3.63;;;1.42;;
65799;SDS011;52544;48.116;11.660;2022-09-09T01:06:36;2.53;;;1.38;;
65799;SDS011;52544;48.116;11.660;2022-09-09T01:11:57;3.85;;;1.60;;
65799;SDS011;52544;48.116;11.660;2022-09-09T01:14:35;4.43;;;1.50;;
65799;SDS011;52544;48.116;11.660;2022-09-09T01:28:08;2.47;;;1.60;;
65799;SDS011;52544;48.116;11.660;2022-09-09T01:30:39;3.10;;;1.40;;
65799;SDS011;52544;48.116;11.660;2022-09-09T01:33:07;3.78;;;1.60;;
65799;SDS011;52544;48.116;11.660;2022-09-09T01:35:55;2.58;;;1.70;;
65799;SDS011;52544;48.116;11.660;2022-09-09T01:38:26;2.70;;;1.63;;
65799;SDS011;52544;48.116;11.660;2022-09-09T01:40:53;3.63;;;1.70;;
65799;SDS011;52544;48.116;11.660;2022-09-09T01:43:22;2.17;;;1.38;;
65799;SDS011;52544;48.116;11.660;2022-09-09T01:45:49;1.30;;;1.20;;
65799;SDS011;52544;48.116;11.660;2022-09-09T01:48:18;3.05;;;1.63;;
65799;SDS011;52544;48.116;11.660;2022-09-09T01:50:44;3.20;;;1.33;;
65799;SDS011;52544;48.116;11.660;2022-09-09T01:53:09;3.78;;;1.60;;
65799;SDS011;52544;48.116;11.660;2022-09-09T01:55:38;2.70;;;1.70;;
65799;SDS011;52544;48.116;11.660;2022-09-09T02:00:58;2.55;;;1.50;;
65799;SDS011;52544;48.116;11.660;2022-09-09T02:03:32;3.15;;;1.40;;
65799;SDS011;52544;48.116;11.660;2022-09-09T02:08:56;2.15;;;1.55;;
65799;SDS011;52544;48.116;11.660;2022-09-09T02:11:23;2.97;;;1.60;;
65799;SDS011;52544;48.116;11.660;2022-09-09T02:13:57;1.73;;;1.50;;
65799;SDS011;52544;48.116;11.660;2022-09-09T02:16:35;1.77;;;1.55;;
65799;SDS011;52544;48.116;11.660;2022-09-09T02:19:09;1.95;;;1.35;;
65799;SDS011;52544;48.116;11.660;2022-09-09T02:21:39;2.75;;;1.45;;
65799;SDS011;52544;48.116;11.660;2022-09-09T02:24:09;2.70;;;1.33;;
65799;SDS011;52544;48.116;11.660;2022-09-09T02:26:39;2.35;;;1.60;;
65799;SDS011;52544;48.116;11.660;2022-09-09T02:29:14;3.33;;;1.80;;
65799;SDS011;52544;48.116;11.660;2022-09-09T02:31:47;3.17;;;1.60;;
65799;SDS011;52544;48.116;11.660;2022-09-09T02:34:15;3.45;;;1.48;;
65799;SDS011;52544;48.116;11.660;2022-09-09T02:36:43;5.05;;;1.77;;
65799;SDS011;52544;48.116;11.660;2022-09-09T02:39:11;1.95;;;1.60;;
65799;SDS011;52544;48.116;11.660;2022-09-09T02:41:38;5.07;;;1.90;;
65799;SDS011;52544;48.116;11.660;2022-09-09T02:44:09;1.73;;;1.40;;
65799;SDS011;52544;48.116;11.660;2022-09-09T02:46:40;2.85;;;1.70;;
65799;SDS011;52544;48.116;11.660;2022-09-09T02:49:09;5.45;;;1.48;;
65799;SDS011;52544;48.116;11.660;2022-09-09T02:54:34;3.92;;;1.40;;
65799;SDS011;52544;48.116;11.660;2022-09-09T02:57:17;4.45;;;1.60;;
65799;SDS011;52544;48.116;11.660;2022-09-09T02:59:46;4.05;;;1.38;;
65799;SDS011;52544;48.116;11.660;2022-09-09T03:02:12;2.05;;;1.15;;
65799;SDS011;52544;48.116;11.660;2022-09-09T03:04:38;2.20;;;1.50;;
65799;SDS011;52544;48.116;11.660;2022-09-09T03:07:05;2.13;;;1.40;;
65799;SDS011;52544;48.116;11.660;2022-09-09T03:09:30;6.05;;;1.83;;
65799;SDS011;52544;48.116;11.660;2022-09-09T03:11:57;2.75;;;1.42;;
65799;SDS011;52544;48.116;11.660;2022-09-09T03:14:23;1.80;;;1.50;;
65799;SDS011;52544;48.116;11.660;2022-09-09T03:16:52;2.05;;;1.60;;
65799;SDS011;52544;48.116;11.660;2022-09-09T03:19:18;3.90;;;1.45;;
65799;SDS011;52544;48.116;11.660;2022-09-09T03:21:44;4.70;;;1.50;;
65799;SDS011;52544;48.116;11.660;2022-09-09T03:24:11;1.98;;;1.48;;
65799;SDS011;52544;48.116;11.660;2022-09-09T03:26:36;5.18;;;1.48;;
65799;SDS011;52544;48.116;11.660;2022-09-09T03:29:02;2.97;;;1.40;;
65799;SDS011;52544;48.116;11.660;2022-09-09T03:31:31;2.97;;;1.40;;
65799;SDS011;52544;48.116;11.660;2022-09-09T03:33:57;2.45;;;1.50;;
65799;SDS011;52544;48.116;11.660;2022-09-09T03:36:25;2.20;;;1.85;;
65799;SDS011;52544;48.116;11.660;2022-09-09T03:38:52;6.05;;;1.50;;
65799;SDS011;52544;48.116;11.660;2022-09-09T03:41:19;1.95;;;1.55;;
65799;SDS011;52544;48.116;11.660;2022-09-09T03:43:44;4.63;;;1.38;;
65799;SDS011;52544;48.116;11.660;2022-09-09T03:46:09;5.30;;;1.50;;
65799;SDS011;52544;48.116;11.660;2022-09-09T03:48:35;3.13;;;1.33;;
65799;SDS011;52544;48.116;11.660;2022-09-09T03:51:00;1.55;;;1.45;;
65799;SDS011;52544;48.116;11.660;2022-09-09T03:53:26;2.30;;;1.45;;
65799;SDS011;52544;48.116;11.660;2022-09-09T03:55:53;1.98;;;1.40;;
65799;SDS011;52544;48.116;11.660;2022-09-09T03:58:21;4.70;;;1.63;;
65799;SDS011;52544;48.116;11.660;2022-09-09T04:00:53;3.38;;;1.40;;
65799;SDS011;52544;48.116;11.660;2022-09-09T04:03:19;3.90;;;1.70;;
65799;SDS011;52544;48.116;11.660;2022-09-09T04:05:45;4.20;;;1.50;;
65799;SDS011;52544;48.116;11.660;2022-09-09T04:08:14;2.08;;;1.38;;
65799;SDS011;52544;48.116;11.660;2022-09-09T04:10:39;1.60;;;1.25;;
65799;SDS011;52544;48.116;11.660;2022-09-09T04:13:04;2.67;;;1.52;;
65799;SDS011;52544;48.116;11.660;2022-09-09T04:15:30;2.80;;;1.63;;
65799;SDS011;52544;48.116;11.660;2022-09-09T04:17:56;2.55;;;1.30;;
65799;SDS011;52544;48.116;11.660;2022-09-09T04:20:22;1.83;;;1.40;;
65799;SDS011;52544;48.116;11.660;2022-09-09T04:22:47;2.15;;;1.45;;
65799;SDS011;52544;48.116;11.660;2022-09-09T04:25:13;2.00;;;1.40;;
65799;SDS011;52544;48.116;11.660;2022-09-09T04:27:38;2.30;;;1.40;;
65799;SDS011;52544;48.116;11.660;2022-09-09T04:30:05;5.97;;;1.67;;
65799;SDS011;52544;48.116;11.660;2022-09-09T04:32:32;2.78;;;1.10;;
65799;SDS011;52544;48.116;11.660;2022-09-09T04:35:02;3.63;;;1.45;;
65799;SDS011;52544;48.116;11.660;2022-09-09T04:37:27;3.83;;;1.58;;
65799;SDS011;52544;48.116;11.660;2022-09-09T04:39:53;1.65;;;1.42;;
65799;SDS011;52544;48.116;11.660;2022-09-09T04:42:19;4.90;;;1.33;;
65799;SDS011;52544;48.116;11.660;2022-09-09T04:44:44;1.75;;;1.30;;
65799;SDS011;52544;48.116;11.660;2022-09-09T04:47:10;3.05;;;1.27;;
65799;SDS011;52544;48.116;11.660;2022-09-09T04:49:36;2.03;;;1.30;;
65799;SDS011;52544;48.116;11.660;2022-09-09T04:52:02;1.70;;;1.40;;
65799;SDS011;52544;48.116;11.660;2022-09-09T04:54:28;2.05;;;1.40;;
65799;SDS011;52544;48.116;11.660;2022-09-09T04:56:54;3.78;;;1.45;;
65799;SDS011;52544;48.116;11.660;2022-09-09T04:59:20;2.50;;;1.40;;
65799;SDS011;52544;48.116;11.660;2022-09-09T05:01:46;2.70;;;1.38;;
65799;SDS011;52544;48.116;11.660;2022-09-09T05:04:13;2.33;;;1.40;;
65799;SDS011;52544;48.116;11.660;2022-09-09T05:06:40;2.95;;;1.40;;
65799;SDS011;52544;48.116;11.660;2022-09-09T05:09:06;3.67;;;1.70;;
65799;SDS011;52544;48.116;11.660;2022-09-09T05:11:32;1.67;;;1.30;;
65799;SDS011;52544;48.116;11.660;2022-09-09T05:14:01;2.58;;;1.30;;
65799;SDS011;52544;48.116;11.660;2022-09-09T05:16:26;2.20;;;1.30;;
65799;SDS011;52544;48.116;11.660;2022-09-09T05:18:52;3.33;;;1.30;;
65799;SDS011;52544;48.116;11.660;2022-09-09T05:21:18;2.38;;;1.63;;
65799;SDS011;52544;48.116;11.660;2022-09-09T05:23:45;4.35;;;1.63;;
65799;SDS011;52544;48.116;11.660;2022-09-09T05:26:11;1.60;;;1.40;;
65799;SDS011;52544;48.116;11.660;2022-09-09T05:28:38;2.45;;;1.60;;
65799;SDS011;52544;48.116;11.660;2022-09-09T05:31:05;4.25;;;1.35;;
65799;SDS011;52544;48.116;11.660;2022-09-09T05:33:37;2.55;;;1.55;;
65799;SDS011;52544;48.116;11.660;2022-09-09T05:36:06;2.55;;;1.45;;
65799;SDS011;52544;48.116;11.660;2022-09-09T05:38:35;2.33;;;1.40;;
65799;SDS011;52544;48.116;11.660;2022-09-09T05:41:01;3.67;;;1.60;;
65799;SDS011;52544;48.116;11.660;2022-09-09T05:43:28;1.75;;;1.38;;
65799;SDS011;52544;48.116;11.660;2022-09-09T05:46:01;7.75;;;1.65;;
65799;SDS011;52544;48.116;11.660;2022-09-09T05:48:29;3.75;;;1.45;;
65799;SDS011;52544;48.116;11.660;2022-09-09T05:50:59;5.18;;;1.92;;
65799;SDS011;52544;48.116;11.660;2022-09-09T05:53:26;4.68;;;1.70;;
65799;SDS011;52544;48.116;11.660;2022-09-09T05:56:02;4.50;;;1.67;;
65799;SDS011;52544;48.116;11.660;2022-09-09T05:58:33;4.38;;;1.58;;
65799;SDS011;52544;48.116;11.660;2022-09-09T06:01:00;1.83;;;1.40;;
65799;SDS011;52544;48.116;11.660;2022-09-09T06:03:30;5.22;;;1.60;;
65799;SDS011;52544;48.116;11.660;2022-09-09T06:05:59;2.92;;;1.52;;
65799;SDS011;52544;48.116;11.660;2022-09-09T06:08:25;3.03;;;1.52;;
65799;SDS011;52544;48.116;11.660;2022-09-09T06:10:51;4.13;;;1.65;;
65799;SDS011;52544;48.116;11.660;2022-09-09T06:13:17;7.47;;;1.60;;
65799;SDS011;52544;48.116;11.660;2022-09-09T06:15:52;2.75;;;1.30;;
65799;SDS011;52544;48.116;11.660;2022-09-09T06:18:17;3.03;;;1.27;;
65799;SDS011;52544;48.116;11.660;2022-09-09T06:20:52;4.93;;;1.58;;
65799;SDS011;52544;48.116;11.660;2022-09-09T06:23:21;3.03;;;1.70;;
65799;SDS011;52544;48.116;11.660;2022-09-09T06:25:47;2.20;;;1.42;;
65799;SDS011;52544;48.116;11.660;2022-09-09T06:28:14;3.65;;;1.50;;
65799;SDS011;52544;48.116;11.660;2022-09-09T06:30:40;6.30;;;1.40;;
65799;SDS011;52544;48.116;11.660;2022-09-09T06:33:06;5.85;;;1.30;;
65799;SDS011;52544;48.116;11.660;2022-09-09T06:35:31;3.67;;;1.20;;
65799;SDS011;52544;48.116;11.660;2022-09-09T06:37:57;2.30;;;1.40;;
65799;SDS011;52544;48.116;11.660;2022-09-09T06:40:24;6.82;;;1.40;;
65799;SDS011;52544;48.116;11.660;2022-09-09T06:42:49;4.18;;;1.23;;
65799;SDS011;52544;48.116;11.660;2022-09-09T06:45:15;1.42;;;1.17;;
65799;SDS011;52544;48.116;11.660;2022-09-09T06:47:40;4.05;;;1.30;;
65799;SDS011;52544;48.116;11.660;2022-09-09T06:50:06;1.92;;;1.13;;
65799;SDS011;52544;48.116;11.660;2022-09-09T06:52:33;3.50;;;1.10;;
65799;SDS011;52544;48.116;11.660;2022-09-09T06:54:58;2.15;;;1.35;;
65799;SDS011;52544;48.116;11.660;2022-09-09T06:57:24;2.38;;;1.30;;
65799;SDS011;52544;48.116;11.660;2022-09-09T06:59:49;2.28;;;1.30;;
65799;SDS011;52544;48.116;11.660;2022-09-09T07:02:15;3.08;;;1.35;;
65799;SDS011;52544;48.116;11.660;2022-09-09T07:04:41;2.65;;;1.30;;
65799;SDS011;52544;48.116;11.660;2022-09-09T07:07:06;4.90;;;1.17;;
65799;SDS011;52544;48.116;11.660;2022-09-09T07:09:33;1.20;;;1.10;;
65799;SDS011;52544;48.116;11.660;2022-09-09T07:11:58;3.85;;;1.30;;
65799;SDS011;52544;48.116;11.660;2022-09-09T07:14:24;3.22;;;1.42;;
65799;SDS011;52544;48.116;11.660;2022-09-09T07:16:50;1.85;;;1.23;;
65799;SDS011;52544;48.116;11.660;2022-09-09T07:19:15;4.45;;;1.30;;
65799;SDS011;52544;48.116;11.660;2022-09-09T07:21:41;2.30;;;1.10;;
65799;SDS011;52544;48.116;11.660;2022-09-09T07:24:07;1.23;;;1.00;;
65799;SDS011;52544;48.116;11.660;2022-09-09T07:26:35;2.53;;;1.10;;
65799;SDS011;52544;48.116;11.660;2022-09-09T07:29:01;2.17;;;1.20;;
65799;SDS011;52544;48.116;11.660;2022-09-09T07:31:31;1.60;;;1.25;;
65799;SDS011;52544;48.116;11.660;2022-09-09T07:33:59;4.20;;;2.00;;
65799;SDS011;52544;48.116;11.660;2022-09-09T07:36:26;1.42;;;1.10;;
65799;SDS011;52544;48.116;11.660;2022-09-09T07:38:55;3.78;;;1.00;;
65799;SDS011;52544;48.116;11.660;2022-09-09T07:41:44;2.85;;;1.30;;
65799;SDS011;52544;48.116;11.660;2022-09-09T07:44:18;5.28;;;1.30;;
65799;SDS011;52544;48.116;11.660;2022-09-09T07:46:48;5.03;;;1.10;;
65799;SDS011;52544;48.116;11.660;2022-09-09T07:49:14;3.65;;;1.42;;
65799;SDS011;52544;48.116;11.660;2022-09-09T07:51:41;4.85;;;1.10;;
65799;SDS011;52544;48.116;11.660;2022-09-09T07:54:10;7.00;;;1.20;;
65799;SDS011;52544;48.116;11.660;2022-09-09T07:56:38;2.03;;;1.20;;
65799;SDS011;52544;48.116;11.660;2022-09-09T07:59:04;1.50;;;1.30;;
65799;SDS011;52544;48.116;11.660;2022-09-09T08:01:35;1.30;;;1.10;;
65799;SDS011;52544;48.116;11.660;2022-09-09T08:04:06;1.20;;;1.05;;
65799;SDS011;52544;48.116;11.660;2022-09-09T08:06:38;1.35;;;1.10;;
65799;SDS011;52544;48.116;11.660;2022-09-09T08:09:06;2.17;;;1.02;;
65799;SDS011;52544;48.116;11.660;2022-09-09T08:11:32;1.65;;;1.02;;
65799;SDS011;52544;48.116;11.660;2022-09-09T08:13:59;1.52;;;1.10;;
65799;SDS011;52544;48.116;11.660;2022-09-09T08:16:29;1.23;;;0.98;;
65799;SDS011;52544;48.116;11.660;2022-09-09T08:18:58;3.75;;;1.20;;
65799;SDS011;52544;48.116;11.660;2022-09-09T08:21:25;2.75;;;1.20;;
65799;SDS011;52544;48.116;11.660;2022-09-09T08:23:55;2.78;;;1.20;;
65799;SDS011;52544;48.116;11.660;2022-09-09T08:26:23;1.20;;;1.00;;
65799;SDS011;52544;48.116;11.660;2022-09-09T08:28:56;2.40;;;1.50;;
65799;SDS011;52544;48.116;11.660;2022-09-09T08:31:24;3.40;;;1.25;;
65799;SDS011;52544;48.116;11.660;2022-09-09T08:33:53;2.15;;;1.17;;
65799;SDS011;52544;48.116;11.660;2022-09-09T08:36:20;1.67;;;1.42;;
65799;SDS011;52544;48.116;11.660;2022-09-09T08:38:47;2.15;;;1.13;;
65799;SDS011;52544;48.116;11.660;2022-09-09T08:53:00;2.20;;;1.15;;
65799;SDS011;52544;48.116;11.660;2022-09-09T08:57:54;4.93;;;1.40;;
65799;SDS011;52544;48.116;11.660;2022-09-09T09:00:20;3.97;;;1.98;;
65799;SDS011;52544;48.116;11.660;2022-09-09T09:05:33;2.80;;;1.45;;
65799;SDS011;52544;48.116;11.660;2022-09-09T09:13:16;1.67;;;1.30;;
65799;SDS011;52544;48.116;11.660;2022-09-09T09:16:02;2.05;;;1.63;;
65799;SDS011;52544;48.116;11.660;2022-09-09T09:18:35;2.25;;;1.63;;
65799;SDS011;52544;48.116;11.660;2022-09-09T09:21:10;3.13;;;1.30;;
65799;SDS011;52544;48.116;11.660;2022-09-09T09:23:45;5.53;;;1.45;;
65799;SDS011;52544;48.116;11.660;2022-09-09T09:26:19;5.88;;;1.60;;
65799;SDS011;52544;48.116;11.660;2022-09-09T09:28:47;2.65;;;1.77;;
65799;SDS011;52544;48.116;11.660;2022-09-09T09:31:12;3.30;;;1.90;;
65799;SDS011;52544;48.116;11.660;2022-09-09T09:33:51;4.47;;;1.50;;
65799;SDS011;52544;48.116;11.660;2022-09-09T09:36:18;4.40;;;1.73;;
65799;SDS011;52544;48.116;11.660;2022-09-09T09:38:56;6.13;;;1.50;;
65799;SDS011;52544;48.116;11.660;2022-09-09T09:41:31;4.88;;;1.40;;
65799;SDS011;52544;48.116;11.660;2022-09-09T09:44:00;3.38;;;1.30;;
65799;SDS011;52544;48.116;11.660;2022-09-09T09:46:26;5.38;;;1.45;;
65799;SDS011;52544;48.116;11.660;2022-09-09T09:48:59;2.83;;;1.30;;
65799;SDS011;52544;48.116;11.660;2022-09-09T09:51:26;2.50;;;1.65;;
65799;SDS011;52544;48.116;11.660;2022-09-09T09:53:54;3.45;;;1.40;;
65799;SDS011;52544;48.116;11.660;2022-09-09T09:56:45;2.80;;;1.90;;
65799;SDS011;52544;48.116;11.660;2022-09-09T10:01:53;1.75;;;1.40;;
65799;SDS011;52544;48.116;11.660;2022-09-09T10:04:19;4.82;;;1.88;;
65799;SDS011;52544;48.116;11.660;2022-09-09T10:06:48;3.55;;;1.38;;
65799;SDS011;52544;48.116;11.660;2022-09-09T10:09:27;1.88;;;1.30;;
65799;SDS011;52544;48.116;11.660;2022-09-09T10:12:04;1.65;;;1.23;;
65799;SDS011;52544;48.116;11.660;2022-09-09T10:14:57;1.83;;;1.23;;
65799;SDS011;52544;48.116;11.660;2022-09-09T10:17:50;1.52;;;1.20;;
65799;SDS011;52544;48.116;11.660;2022-09-09T10:26:45;3.53;;;1.80;;
65799;SDS011;52544;48.116;11.660;2022-09-09T10:34:44;3.08;;;1.10;;
65799;SDS011;52544;48.116;11.660;2022-09-09T10:37:17;3.13;;;1.00;;
65799;SDS011;52544;48.116;11.660;2022-09-09T10:39:47;1.70;;;1.30;;
65799;SDS011;52544;48.116;11.660;2022-09-09T10:42:16;2.45;;;1.38;;
65799;SDS011;52544;48.116;11.660;2022-09-09T10:47:21;3.28;;;1.30;;
65799;SDS011;52544;48.116;11.660;2022-09-09T10:53:41;1.23;;;0.90;;
65799;SDS011;52544;48.116;11.660;2022-09-09T10:55:44;2.17;;;1.02;;
65799;SDS011;52544;48.116;11.660;2022-09-09T10:58:59;1.20;;;1.00;;
65799;SDS011;52544;48.116;11.660;2022-09-09T11:01:22;1.88;;;1.13;;
65799;SDS011;52544;48.116;11.660;2022-09-09T11:04:10;2.25;;;1.05;;
65799;SDS011;52544;48.116;11.660;2022-09-09T11:06:43;1.55;;;1.08;;
65799;SDS011;52544;48.116;11.660;2022-09-09T11:09:16;4.05;;;1.15;;
65799;SDS011;52544;48.116;11.660;2022-09-09T11:11:53;0.82;;;0.82;;
65799;SDS011;52544;48.116;11.660;2022-09-09T11:14:22;2.95;;;0.95;;
65799;SDS011;52544;48.116;11.660;2022-09-09T11:19:39;1.23;;;0.80;;
65799;SDS011;52544;48.116;11.660;2022-09-09T11:22:07;2.50;;;1.00;;
65799;SDS011;52544;48.116;11.660;2022-09-09T11:24:48;1.70;;;0.90;;
65799;SDS011;52544;48.116;11.660;2022-09-09T11:27:35;1.50;;;0.90;;
65799;SDS011;52544;48.116;11.660;2022-09-09T11:30:14;1.05;;;0.80;;
65799;SDS011;52544;48.116;11.660;2022-09-09T11:33:07;5.47;;;0.95;;
65799;SDS011;52544;48.116;11.660;2022-09-09T11:38:47;1.05;;;0.70;;
65799;SDS011;52544;48.116;11.660;2022-09-09T11:41:16;0.80;;;0.80;;
65799;SDS011;52544;48.116;11.660;2022-09-09T11:43:49;1.80;;;0.93;;
65799;SDS011;52544;48.116;11.660;2022-09-09T11:46:17;4.50;;;1.00;;
65799;SDS011;52544;48.116;11.660;2022-09-09T11:49:00;4.75;;;0.90;;
65799;SDS011;52544;48.116;11.660;2022-09-09T11:51:28;1.52;;;0.80;;
65799;SDS011;52544;48.116;11.660;2022-09-09T11:54:28;1.30;;;0.88;;
65799;SDS011;52544;48.116;11.660;2022-09-09T11:56:57;2.35;;;0.80;;
65799;SDS011;52544;48.116;11.660;2022-09-09T11:59:24;2.47;;;0.90;;
65799;SDS011;52544;48.116;11.660;2022-09-09T12:02:12;1.95;;;0.88;;
65799;SDS011;52544;48.116;11.660;2022-09-09T12:04:46;3.90;;;0.70;;
65799;SDS011;52544;48.116;11.660;2022-09-09T12:12:36;2.03;;;0.70;;
65799;SDS011;52544;48.116;11.660;2022-09-09T12:17:47;1.45;;;0.80;;
65799;SDS011;52544;48.116;11.660;2022-09-09T12:20:19;2.47;;;0.98;;
65799;SDS011;52544;48.116;11.660;2022-09-09T12:23:06;1.73;;;0.73;;
65799;SDS011;52544;48.116;11.660;2022-09-09T12:26:03;1.10;;;0.73;;
65799;SDS011;52544;48.116;11.660;2022-09-09T12:29:00;2.22;;;0.95;;
65799;SDS011;52544;48.116;11.660;2022-09-09T12:31:36;5.90;;;1.05;;
65799;SDS011;52544;48.116;11.660;2022-09-09T12:34:09;1.77;;;1.10;;
65799;SDS011;52544;48.116;11.660;2022-09-09T12:36:38;1.80;;;0.80;;
65799;SDS011;52544;48.116;11.660;2022-09-09T12:39:10;0.70;;;0.70;;
65799;SDS011;52544;48.116;11.660;2022-09-09T12:41:57;2.20;;;0.90;;
65799;SDS011;52544;48.116;11.660;2022-09-09T12:44:23;4.25;;;0.95;;
65799;SDS011;52544;48.116;11.660;2022-09-09T12:46:50;2.80;;;0.70;;
65799;SDS011;52544;48.116;11.660;2022-09-09T12:49:35;0.95;;;0.63;;
65799;SDS011;52544;48.116;11.660;2022-09-09T12:52:08;5.60;;;0.77;;
65799;SDS011;52544;48.116;11.660;2022-09-09T12:54:42;4.05;;;1.10;;
65799;SDS011;52544;48.116;11.660;2022-09-09T12:57:12;1.23;;;0.65;;
65799;SDS011;52544;48.116;11.660;2022-09-09T12:59:39;0.85;;;0.70;;
65799;SDS011;52544;48.116;11.660;2022-09-09T13:02:23;1.08;;;0.60;;
65799;SDS011;52544;48.116;11.660;2022-09-09T13:04:50;2.15;;;0.80;;
65799;SDS011;52544;48.116;11.660;2022-09-09T13:07:17;5.82;;;0.80;;
65799;SDS011;52544;48.116;11.660;2022-09-09T13:09:44;3.65;;;0.77;;
65799;SDS011;52544;48.116;11.660;2022-09-09T13:12:22;1.50;;;0.80;;
65799;SDS011;52544;48.116;11.660;2022-09-09T13:14:49;1.92;;;0.80;;
65799;SDS011;52544;48.116;11.660;2022-09-09T13:17:19;0.60;;;0.60;;
65799;SDS011;52544;48.116;11.660;2022-09-09T13:19:46;1.15;;;0.70;;
65799;SDS011;52544;48.116;11.660;2022-09-09T13:22:20;2.97;;;0.95;;
65799;SDS011;52544;48.116;11.660;2022-09-09T13:27:37;2.35;;;0.70;;
65799;SDS011;52544;48.116;11.660;2022-09-09T13:32:59;0.73;;;0.60;;
65799;SDS011;52544;48.116;11.660;2022-09-09T13:35:26;1.10;;;0.80;;
65799;SDS011;52544;48.116;11.660;2022-09-09T13:37:52;1.02;;;0.70;;
65799;SDS011;52544;48.116;11.660;2022-09-09T13:40:19;0.60;;;0.50;;
65799;SDS011;52544;48.116;11.660;2022-09-09T13:42:46;0.50;;;0.50;;
65799;SDS011;52544;48.116;11.660;2022-09-09T13:45:20;1.20;;;0.80;;
65799;SDS011;52544;48.116;11.660;2022-09-09T13:47:47;1.70;;;0.70;;
65799;SDS011;52544;48.116;11.660;2022-09-09T13:50:21;0.90;;;0.80;;
65799;SDS011;52544;48.116;11.660;2022-09-09T13:52:57;1.63;;;0.80;;
65799;SDS011;52544;48.116;11.660;2022-09-09T13:55:24;1.00;;;0.70;;
65799;SDS011;52544;48.116;11.660;2022-09-09T13:57:52;0.65;;;0.60;;
65799;SDS011;52544;48.116;11.660;2022-09-09T14:00:19;1.73;;;0.65;;
65799;SDS011;52544;48.116;11.660;2022-09-09T14:02:46;0.95;;;0.70;;
65799;SDS011;52544;48.116;11.660;2022-09-09T14:05:12;0.80;;;0.80;;
65799;SDS011;52544;48.116;11.660;2022-09-09T14:07:38;2.90;;;0.80;;
65799;SDS011;52544;48.116;11.660;2022-09-09T14:10:05;1.00;;;0.73;;
65799;SDS011;52544;48.116;11.660;2022-09-09T14:12:31;0.60;;;0.60;;
65799;SDS011;52544;48.116;11.660;2022-09-09T14:14:57;1.45;;;0.95;;
65799;SDS011;52544;48.116;11.660;2022-09-09T14:17:22;0.95;;;0.80;;
65799;SDS011;52544;48.116;11.660;2022-09-09T14:19:47;1.40;;;0.70;;
65799;SDS011;52544;48.116;11.660;2022-09-09T14:22:13;0.90;;;0.70;;
65799;SDS011;52544;48.116;11.660;2022-09-09T14:24:39;0.90;;;0.70;;
65799;SDS011;52544;48.116;11.660;2022-09-09T14:27:06;1.65;;;0.80;;
65799;SDS011;52544;48.116;11.660;2022-09-09T14:29:31;2.83;;;0.88;;
65799;SDS011;52544;48.116;11.660;2022-09-09T14:31:58;2.50;;;0.95;;
65799;SDS011;52544;48.116;11.660;2022-09-09T14:34:25;3.45;;;0.93;;
65799;SDS011;52544;48.116;11.660;2022-09-09T14:36:51;0.88;;;0.70;;
65799;SDS011;52544;48.116;11.660;2022-09-09T14:39:16;1.15;;;0.60;;
65799;SDS011;52544;48.116;11.660;2022-09-09T14:41:42;1.65;;;0.75;;
65799;SDS011;52544;48.116;11.660;2022-09-09T14:44:08;1.58;;;0.85;;
65799;SDS011;52544;48.116;11.660;2022-09-09T14:46:33;1.70;;;0.77;;
65799;SDS011;52544;48.116;11.660;2022-09-09T14:48:59;4.13;;;0.98;;
65799;SDS011;52544;48.116;11.660;2022-09-09T14:51:24;1.75;;;0.77;;
65799;SDS011;52544;48.116;11.660;2022-09-09T14:53:52;1.27;;;0.80;;
65799;SDS011;52544;48.116;11.660;2022-09-09T14:56:19;0.80;;;0.70;;
65799;SDS011;52544;48.116;11.660;2022-09-09T14:58:48;2.47;;;0.80;;
65799;SDS011;52544;48.116;11.660;2022-09-09T15:01:15;2.33;;;0.68;;
65799;SDS011;52544;48.116;11.660;2022-09-09T15:03:43;2.53;;;0.93;;
65799;SDS011;52544;48.116;11.660;2022-09-09T15:06:13;1.75;;;0.80;;
65799;SDS011;52544;48.116;11.660;2022-09-09T15:08:40;1.05;;;0.65;;
65799;SDS011;52544;48.116;11.660;2022-09-09T15:11:07;1.65;;;0.88;;
65799;SDS011;52544;48.116;11.660;2022-09-09T15:13:34;4.18;;;0.80;;
65799;SDS011;52544;48.116;11.660;2022-09-09T15:16:09;2.03;;;0.90;;
65799;SDS011;52544;48.116;11.660;2022-09-09T15:18:36;1.70;;;0.90;;
65799;SDS011;52544;48.116;11.660;2022-09-09T15:21:11;2.85;;;1.10;;
65799;SDS011;52544;48.116;11.660;2022-09-09T15:23:36;2.10;;;0.90;;
65799;SDS011;52544;48.116;11.660;2022-09-09T15:26:03;2.92;;;0.85;;
65799;SDS011;52544;48.116;11.660;2022-09-09T15:28:29;1.75;;;0.90;;
65799;SDS011;52544;48.116;11.660;2022-09-09T15:30:57;1.30;;;0.90;;
65799;SDS011;52544;48.116;11.660;2022-09-09T15:33:23;2.92;;;0.80;;
65799;SDS011;52544;48.116;11.660;2022-09-09T15:35:48;3.90;;;0.90;;
65799;SDS011;52544;48.116;11.660;2022-09-09T15:38:15;2.53;;;0.80;;
65799;SDS011;52544;48.116;11.660;2022-09-09T15:40:42;4.50;;;0.90;;
65799;SDS011;52544;48.116;11.660;2022-09-09T15:43:08;1.00;;;0.90;;
65799;SDS011;52544;48.116;11.660;2022-09-09T15:45:35;1.83;;;1.40;;
65799;SDS011;52544;48.116;11.660;2022-09-09T15:48:01;2.47;;;1.30;;
65799;SDS011;52544;48.116;11.660;2022-09-09T15:50:27;2.05;;;1.20;;
65799;SDS011;52544;48.116;11.660;2022-09-09T15:52:56;1.73;;;1.00;;
65799;SDS011;52544;48.116;11.660;2022-09-09T15:55:21;1.05;;;0.90;;
65799;SDS011;52544;48.116;11.660;2022-09-09T15:57:49;2.35;;;1.00;;
65799;SDS011;52544;48.116;11.660;2022-09-09T16:00:14;1.85;;;1.00;;
65799;SDS011;52544;48.116;11.660;2022-09-09T16:02:40;3.65;;;0.90;;
65799;SDS011;52544;48.116;11.660;2022-09-09T16:05:05;2.75;;;1.10;;
65799;SDS011;52544;48.116;11.660;2022-09-09T16:07:31;5.65;;;1.05;;
65799;SDS011;52544;48.116;11.660;2022-09-09T16:09:56;2.10;;;0.90;;
65799;SDS011;52544;48.116;11.660;2022-09-09T16:12:22;2.50;;;0.90;;
65799;SDS011;52544;48.116;11.660;2022-09-09T16:14:47;2.63;;;1.05;;
65799;SDS011;52544;48.116;11.660;2022-09-09T16:17:13;3.72;;;1.10;;
65799;SDS011;52544;48.116;11.660;2022-09-09T16:19:40;2.17;;;1.00;;
65799;SDS011;52544;48.116;11.660;2022-09-09T16:22:05;3.03;;;1.00;;
65799;SDS011;52544;48.116;11.660;2022-09-09T16:24:31;2.47;;;1.08;;
65799;SDS011;52544;48.116;11.660;2022-09-09T16:26:57;1.83;;;1.00;;
65799;SDS011;52544;48.116;11.660;2022-09-09T16:29:22;6.00;;;1.30;;
65799;SDS011;52544;48.116;11.660;2022-09-09T16:31:49;1.48;;;0.90;;
65799;SDS011;52544;48.116;11.660;2022-09-09T16:34:15;1.67;;;0.98;;